sensor_id;sensor_type;location;lat;lon;timestamp;P1;durP1;ratioP1;P2;durP2;ratioP2
19535;SDS011;9913;51.168;4.124;2023-06-10T00:00:49;9.52;;;8.63;;
19535;SDS011;9913;51.168;4.124;2023-06-10T00:03:18;9.80;;;8.75;;
19535;SDS011;9913;51.168;4.124;2023-06-10T00:05:50;9.82;;;8.82;;
19535;SDS011;9913;51.168;4.124;2023-06-10T00:08:18;9.85;;;8.90;;
19535;SDS011;9913;51.168;4.124;2023-06-10T00:10:47;9.60;;;8.60;;
19535;SDS011;9913;51.168;4.124;2023-06-10T00:13:15;9.43;;;8.52;;
19535;SDS011;9913;51.168;4.124;2023-06-10T00:15:45;9.27;;;8.40;;
19535;SDS011;9913;51.168;4.124;2023-06-10T00:18:13;10.98;;;8.88;;
19535;SDS011;9913;51.168;4.124;2023-06-10T00:20:42;10.77;;;8.52;;
19535;SDS011;9913;51.168;4.124;2023-06-10T00:23:11;9.75;;;8.80;;
19535;SDS011;9913;51.168;4.124;2023-06-10T00:25:39;9.32;;;8.43;;
19535;SDS011;9913;51.168;4.124;2023-06-10T00:28:08;9.50;;;8.60;;
19535;SDS011;9913;51.168;4.124;2023-06-10T00:30:36;12.45;;;8.93;;
19535;SDS011;9913;51.168;4.124;2023-06-10T00:33:06;11.45;;;8.57;;
19535;SDS011;9913;51.168;4.124;2023-06-10T00:35:34;9.90;;;8.90;;
19535;SDS011;9913;51.168;4.124;2023-06-10T00:38:02;10.85;;;9.18;;
19535;SDS011;9913;51.168;4.124;2023-06-10T00:40:31;9.43;;;8.48;;
19535;SDS011;9913;51.168;4.124;2023-06-10T00:43:01;9.50;;;8.50;;
19535;SDS011;9913;51.168;4.124;2023-06-10T00:45:29;13.70;;;9.20;;
19535;SDS011;9913;51.168;4.124;2023-06-10T00:47:58;11.65;;;8.90;;
19535;SDS011;9913;51.168;4.124;2023-06-10T00:50:28;9.98;;;8.98;;
19535;SDS011;9913;51.168;4.124;2023-06-10T00:52:57;10.75;;;9.00;;
19535;SDS011;9913;51.168;4.124;2023-06-10T00:55:27;11.68;;;8.90;;
19535;SDS011;9913;51.168;4.124;2023-06-10T00:57:55;9.95;;;8.88;;
19535;SDS011;9913;51.168;4.124;2023-06-10T01:00:25;10.35;;;8.77;;
19535;SDS011;9913;51.168;4.124;2023-06-10T01:02:53;11.02;;;8.93;;
19535;SDS011;9913;51.168;4.124;2023-06-10T01:05:22;9.95;;;9.05;;
19535;SDS011;9913;51.168;4.124;2023-06-10T01:07:55;9.93;;;8.38;;
19535;SDS011;9913;51.168;4.124;2023-06-10T01:10:33;10.68;;;9.18;;
19535;SDS011;9913;51.168;4.124;2023-06-10T01:13:06;9.65;;;8.65;;
19535;SDS011;9913;51.168;4.124;2023-06-10T01:15:38;10.60;;;9.50;;
19535;SDS011;9913;51.168;4.124;2023-06-10T01:18:07;9.77;;;8.68;;
19535;SDS011;9913;51.168;4.124;2023-06-10T01:20:43;10.30;;;8.98;;
19535;SDS011;9913;51.168;4.124;2023-06-10T01:23:18;9.77;;;8.73;;
19535;SDS011;9913;51.168;4.124;2023-06-10T01:25:47;10.50;;;9.40;;
19535;SDS011;9913;51.168;4.124;2023-06-10T01:28:24;10.73;;;8.63;;
19535;SDS011;9913;51.168;4.124;2023-06-10T01:30:56;9.40;;;8.38;;
19535;SDS011;9913;51.168;4.124;2023-06-10T01:33:31;11.68;;;8.70;;
19535;SDS011;9913;51.168;4.124;2023-06-10T01:36:03;10.32;;;8.98;;
19535;SDS011;9913;51.168;4.124;2023-06-10T01:38:33;10.18;;;9.15;;
19535;SDS011;9913;51.168;4.124;2023-06-10T01:41:07;10.32;;;9.27;;
19535;SDS011;9913;51.168;4.124;2023-06-10T01:43:37;10.38;;;8.93;;
19535;SDS011;9913;51.168;4.124;2023-06-10T01:46:06;10.73;;;9.63;;
19535;SDS011;9913;51.168;4.124;2023-06-10T01:48:34;10.68;;;9.10;;
19535;SDS011;9913;51.168;4.124;2023-06-10T01:51:03;10.85;;;9.32;;
19535;SDS011;9913;51.168;4.124;2023-06-10T01:53:31;10.50;;;9.30;;
19535;SDS011;9913;51.168;4.124;2023-06-10T01:56:01;9.90;;;8.65;;
19535;SDS011;9913;51.168;4.124;2023-06-10T01:58:29;10.52;;;9.43;;
19535;SDS011;9913;51.168;4.124;2023-06-10T02:00:58;12.13;;;10.02;;
19535;SDS011;9913;51.168;4.124;2023-06-10T02:03:26;11.07;;;9.40;;
19535;SDS011;9913;51.168;4.124;2023-06-10T02:05:55;10.88;;;9.77;;
19535;SDS011;9913;51.168;4.124;2023-06-10T02:08:23;12.10;;;10.07;;
19535;SDS011;9913;51.168;4.124;2023-06-10T02:10:52;12.50;;;9.38;;
19535;SDS011;9913;51.168;4.124;2023-06-10T02:13:21;12.98;;;10.25;;
19535;SDS011;9913;51.168;4.124;2023-06-10T02:15:53;12.90;;;9.60;;
19535;SDS011;9913;51.168;4.124;2023-06-10T02:18:21;11.10;;;9.80;;
19535;SDS011;9913;51.168;4.124;2023-06-10T02:20:50;11.52;;;9.65;;
19535;SDS011;9913;51.168;4.124;2023-06-10T02:23:18;10.68;;;9.57;;
19535;SDS011;9913;51.168;4.124;2023-06-10T02:25:46;11.15;;;9.98;;
19535;SDS011;9913;51.168;4.124;2023-06-10T02:28:16;11.05;;;9.90;;
19535;SDS011;9913;51.168;4.124;2023-06-10T02:30:45;10.90;;;9.60;;
19535;SDS011;9913;51.168;4.124;2023-06-10T02:33:14;12.65;;;10.10;;
19535;SDS011;9913;51.168;4.124;2023-06-10T02:35:44;10.93;;;9.20;;
19535;SDS011;9913;51.168;4.124;2023-06-10T02:38:12;11.38;;;10.15;;
19535;SDS011;9913;51.168;4.124;2023-06-10T02:40:40;12.27;;;10.13;;
19535;SDS011;9913;51.168;4.124;2023-06-10T02:43:10;10.48;;;9.35;;
19535;SDS011;9913;51.168;4.124;2023-06-10T02:45:41;10.88;;;9.38;;
19535;SDS011;9913;51.168;4.124;2023-06-10T02:48:10;11.15;;;10.05;;
19535;SDS011;9913;51.168;4.124;2023-06-10T02:50:39;11.85;;;9.77;;
19535;SDS011;9913;51.168;4.124;2023-06-10T02:53:19;12.48;;;9.95;;
19535;SDS011;9913;51.168;4.124;2023-06-10T02:55:53;10.15;;;8.88;;
19535;SDS011;9913;51.168;4.124;2023-06-10T02:58:22;11.63;;;9.45;;
19535;SDS011;9913;51.168;4.124;2023-06-10T03:00:52;10.57;;;9.43;;
19535;SDS011;9913;51.168;4.124;2023-06-10T03:03:21;11.07;;;9.98;;
19535;SDS011;9913;51.168;4.124;2023-06-10T03:06:02;11.57;;;10.07;;
19535;SDS011;9913;51.168;4.124;2023-06-10T03:08:32;10.98;;;9.88;;
19535;SDS011;9913;51.168;4.124;2023-06-10T03:11:05;11.88;;;10.68;;
19535;SDS011;9913;51.168;4.124;2023-06-10T03:13:34;12.10;;;10.13;;
19535;SDS011;9913;51.168;4.124;2023-06-10T03:16:05;11.98;;;10.57;;
19535;SDS011;9913;51.168;4.124;2023-06-10T03:18:37;11.70;;;10.43;;
19535;SDS011;9913;51.168;4.124;2023-06-10T03:21:05;11.80;;;10.57;;
19535;SDS011;9913;51.168;4.124;2023-06-10T03:23:35;12.13;;;10.65;;
19535;SDS011;9913;51.168;4.124;2023-06-10T03:26:05;11.55;;;10.18;;
19535;SDS011;9913;51.168;4.124;2023-06-10T03:28:37;12.18;;;10.90;;
19535;SDS011;9913;51.168;4.124;2023-06-10T03:31:08;11.38;;;10.27;;
19535;SDS011;9913;51.168;4.124;2023-06-10T03:33:37;11.57;;;10.27;;
19535;SDS011;9913;51.168;4.124;2023-06-10T03:36:05;14.23;;;11.75;;
19535;SDS011;9913;51.168;4.124;2023-06-10T03:38:35;12.35;;;11.15;;
19535;SDS011;9913;51.168;4.124;2023-06-10T03:41:06;12.32;;;11.13;;
19535;SDS011;9913;51.168;4.124;2023-06-10T03:43:35;13.38;;;11.30;;
19535;SDS011;9913;51.168;4.124;2023-06-10T03:46:06;12.48;;;10.95;;
19535;SDS011;9913;51.168;4.124;2023-06-10T03:48:36;13.18;;;11.23;;
19535;SDS011;9913;51.168;4.124;2023-06-10T03:51:06;14.07;;;11.25;;
19535;SDS011;9913;51.168;4.124;2023-06-10T03:53:34;13.57;;;11.32;;
19535;SDS011;9913;51.168;4.124;2023-06-10T03:56:02;13.45;;;11.98;;
19535;SDS011;9913;51.168;4.124;2023-06-10T03:58:31;11.88;;;10.65;;
19535;SDS011;9913;51.168;4.124;2023-06-10T04:00:59;12.50;;;11.18;;
19535;SDS011;9913;51.168;4.124;2023-06-10T04:03:33;13.65;;;10.80;;
19535;SDS011;9913;51.168;4.124;2023-06-10T04:06:03;12.02;;;10.82;;
19535;SDS011;9913;51.168;4.124;2023-06-10T04:08:31;12.50;;;11.25;;
19535;SDS011;9913;51.168;4.124;2023-06-10T04:10:59;12.02;;;10.88;;
19535;SDS011;9913;51.168;4.124;2023-06-10T04:13:28;14.52;;;11.23;;
19535;SDS011;9913;51.168;4.124;2023-06-10T04:15:58;12.70;;;11.40;;
19535;SDS011;9913;51.168;4.124;2023-06-10T04:18:27;13.85;;;11.52;;
19535;SDS011;9913;51.168;4.124;2023-06-10T04:20:59;13.13;;;11.80;;
19535;SDS011;9913;51.168;4.124;2023-06-10T04:23:30;13.32;;;11.93;;
19535;SDS011;9913;51.168;4.124;2023-06-10T04:25:59;13.13;;;11.80;;
19535;SDS011;9913;51.168;4.124;2023-06-10T04:28:28;12.70;;;11.50;;
19535;SDS011;9913;51.168;4.124;2023-06-10T04:30:57;12.10;;;10.88;;
19535;SDS011;9913;51.168;4.124;2023-06-10T04:33:25;12.68;;;11.35;;
19535;SDS011;9913;51.168;4.124;2023-06-10T04:35:55;13.65;;;11.38;;
19535;SDS011;9913;51.168;4.124;2023-06-10T04:38:25;12.15;;;10.95;;
19535;SDS011;9913;51.168;4.124;2023-06-10T04:40:56;12.75;;;11.13;;
19535;SDS011;9913;51.168;4.124;2023-06-10T04:43:26;14.25;;;11.88;;
19535;SDS011;9913;51.168;4.124;2023-06-10T04:45:56;12.40;;;11.10;;
19535;SDS011;9913;51.168;4.124;2023-06-10T04:48:24;13.00;;;11.13;;
19535;SDS011;9913;51.168;4.124;2023-06-10T04:50:53;15.70;;;11.38;;
19535;SDS011;9913;51.168;4.124;2023-06-10T04:53:23;12.57;;;11.27;;
19535;SDS011;9913;51.168;4.124;2023-06-10T04:55:51;13.70;;;11.82;;
19535;SDS011;9913;51.168;4.124;2023-06-10T04:58:20;12.80;;;11.45;;
19535;SDS011;9913;51.168;4.124;2023-06-10T05:00:49;12.55;;;11.25;;
19535;SDS011;9913;51.168;4.124;2023-06-10T05:03:17;14.30;;;11.60;;
19535;SDS011;9913;51.168;4.124;2023-06-10T05:05:46;12.52;;;11.23;;
19535;SDS011;9913;51.168;4.124;2023-06-10T05:08:14;13.02;;;11.13;;
19535;SDS011;9913;51.168;4.124;2023-06-10T05:10:42;12.90;;;11.32;;
19535;SDS011;9913;51.168;4.124;2023-06-10T05:13:10;11.88;;;10.68;;
19535;SDS011;9913;51.168;4.124;2023-06-10T05:15:40;12.00;;;10.77;;
19535;SDS011;9913;51.168;4.124;2023-06-10T05:18:11;13.15;;;11.25;;
19535;SDS011;9913;51.168;4.124;2023-06-10T05:20:39;12.80;;;10.85;;
19535;SDS011;9913;51.168;4.124;2023-06-10T05:23:07;12.45;;;11.25;;
19535;SDS011;9913;51.168;4.124;2023-06-10T05:25:36;12.57;;;10.10;;
19535;SDS011;9913;51.168;4.124;2023-06-10T05:28:04;15.02;;;11.85;;
19535;SDS011;9913;51.168;4.124;2023-06-10T05:30:41;13.27;;;11.05;;
19535;SDS011;9913;51.168;4.124;2023-06-10T05:33:09;13.07;;;11.70;;
19535;SDS011;9913;51.168;4.124;2023-06-10T05:35:38;12.35;;;10.95;;
19535;SDS011;9913;51.168;4.124;2023-06-10T05:38:06;12.73;;;11.43;;
19535;SDS011;9913;51.168;4.124;2023-06-10T05:40:34;12.57;;;11.15;;
19535;SDS011;9913;51.168;4.124;2023-06-10T05:43:02;12.45;;;11.13;;
19535;SDS011;9913;51.168;4.124;2023-06-10T05:45:31;13.82;;;11.77;;
19535;SDS011;9913;51.168;4.124;2023-06-10T05:48:00;14.35;;;11.60;;
19535;SDS011;9913;51.168;4.124;2023-06-10T05:50:29;12.45;;;11.15;;
19535;SDS011;9913;51.168;4.124;2023-06-10T05:52:57;13.02;;;11.70;;
19535;SDS011;9913;51.168;4.124;2023-06-10T05:55:25;13.48;;;11.40;;
19535;SDS011;9913;51.168;4.124;2023-06-10T05:58:00;13.38;;;11.15;;
19535;SDS011;9913;51.168;4.124;2023-06-10T06:00:28;12.38;;;11.07;;
19535;SDS011;9913;51.168;4.124;2023-06-10T06:02:57;12.75;;;11.55;;
19535;SDS011;9913;51.168;4.124;2023-06-10T06:05:27;12.52;;;11.13;;
19535;SDS011;9913;51.168;4.124;2023-06-10T06:08:01;13.38;;;12.00;;
19535;SDS011;9913;51.168;4.124;2023-06-10T06:10:29;12.75;;;11.45;;
19535;SDS011;9913;51.168;4.124;2023-06-10T06:12:58;12.32;;;11.10;;
19535;SDS011;9913;51.168;4.124;2023-06-10T06:15:26;13.18;;;11.70;;
19535;SDS011;9913;51.168;4.124;2023-06-10T06:17:55;13.75;;;11.65;;
19535;SDS011;9913;51.168;4.124;2023-06-10T06:20:23;14.48;;;12.05;;
19535;SDS011;9913;51.168;4.124;2023-06-10T06:22:53;11.95;;;10.75;;
19535;SDS011;9913;51.168;4.124;2023-06-10T06:25:22;16.25;;;11.35;;
19535;SDS011;9913;51.168;4.124;2023-06-10T06:27:50;12.40;;;11.18;;
19535;SDS011;9913;51.168;4.124;2023-06-10T06:30:18;12.95;;;11.23;;
19535;SDS011;9913;51.168;4.124;2023-06-10T06:32:47;13.65;;;11.70;;
19535;SDS011;9913;51.168;4.124;2023-06-10T06:35:15;12.93;;;11.40;;
19535;SDS011;9913;51.168;4.124;2023-06-10T06:37:44;12.73;;;11.43;;
19535;SDS011;9913;51.168;4.124;2023-06-10T06:40:25;12.63;;;11.32;;
19535;SDS011;9913;51.168;4.124;2023-06-10T06:42:54;15.57;;;11.00;;
19535;SDS011;9913;51.168;4.124;2023-06-10T06:45:40;12.10;;;10.98;;
19535;SDS011;9913;51.168;4.124;2023-06-10T06:48:08;13.35;;;11.25;;
19535;SDS011;9913;51.168;4.124;2023-06-10T06:50:37;12.18;;;10.95;;
19535;SDS011;9913;51.168;4.124;2023-06-10T06:53:08;12.02;;;10.82;;
19535;SDS011;9913;51.168;4.124;2023-06-10T06:55:38;13.27;;;11.07;;
19535;SDS011;9913;51.168;4.124;2023-06-10T06:58:06;12.18;;;11.02;;
19535;SDS011;9913;51.168;4.124;2023-06-10T07:00:34;13.23;;;11.00;;
19535;SDS011;9913;51.168;4.124;2023-06-10T07:03:03;11.80;;;10.50;;
19535;SDS011;9913;51.168;4.124;2023-06-10T07:05:31;13.57;;;11.75;;
19535;SDS011;9913;51.168;4.124;2023-06-10T07:08:00;12.35;;;11.07;;
19535;SDS011;9913;51.168;4.124;2023-06-10T07:10:28;12.52;;;10.82;;
19535;SDS011;9913;51.168;4.124;2023-06-10T07:12:58;13.32;;;10.65;;
19535;SDS011;9913;51.168;4.124;2023-06-10T07:15:29;17.00;;;11.00;;
19535;SDS011;9913;51.168;4.124;2023-06-10T07:17:59;11.70;;;10.48;;
19535;SDS011;9913;51.168;4.124;2023-06-10T07:20:28;11.50;;;10.40;;
19535;SDS011;9913;51.168;4.124;2023-06-10T07:22:56;12.43;;;11.23;;
19535;SDS011;9913;51.168;4.124;2023-06-10T07:25:24;12.27;;;11.02;;
19535;SDS011;9913;51.168;4.124;2023-06-10T07:27:52;11.30;;;10.18;;
19535;SDS011;9913;51.168;4.124;2023-06-10T07:30:22;12.07;;;10.88;;
19535;SDS011;9913;51.168;4.124;2023-06-10T07:32:51;13.40;;;10.55;;
19535;SDS011;9913;51.168;4.124;2023-06-10T07:35:19;11.20;;;10.10;;
19535;SDS011;9913;51.168;4.124;2023-06-10T07:37:48;12.50;;;10.32;;
19535;SDS011;9913;51.168;4.124;2023-06-10T07:40:16;10.20;;;9.20;;
19535;SDS011;9913;51.168;4.124;2023-06-10T07:42:44;12.43;;;10.05;;
19535;SDS011;9913;51.168;4.124;2023-06-10T07:45:13;11.27;;;9.45;;
19535;SDS011;9913;51.168;4.124;2023-06-10T07:47:42;9.65;;;8.70;;
19535;SDS011;9913;51.168;4.124;2023-06-10T07:50:11;10.80;;;9.70;;
19535;SDS011;9913;51.168;4.124;2023-06-10T07:52:39;10.32;;;9.23;;
19535;SDS011;9913;51.168;4.124;2023-06-10T07:55:08;11.05;;;8.95;;
19535;SDS011;9913;51.168;4.124;2023-06-10T07:57:37;10.48;;;8.75;;
19535;SDS011;9913;51.168;4.124;2023-06-10T08:00:06;10.43;;;9.30;;
19535;SDS011;9913;51.168;4.124;2023-06-10T08:02:38;9.90;;;9.00;;
19535;SDS011;9913;51.168;4.124;2023-06-10T08:05:08;10.20;;;8.57;;
19535;SDS011;9913;51.168;4.124;2023-06-10T08:07:37;11.23;;;9.00;;
19535;SDS011;9913;51.168;4.124;2023-06-10T08:10:06;10.85;;;9.40;;
19535;SDS011;9913;51.168;4.124;2023-06-10T08:12:35;10.63;;;8.52;;
19535;SDS011;9913;51.168;4.124;2023-06-10T08:15:04;9.43;;;8.52;;
19535;SDS011;9913;51.168;4.124;2023-06-10T08:17:34;10.18;;;8.73;;
19535;SDS011;9913;51.168;4.124;2023-06-10T08:20:03;11.82;;;8.52;;
19535;SDS011;9913;51.168;4.124;2023-06-10T08:22:33;10.35;;;8.73;;
19535;SDS011;9913;51.168;4.124;2023-06-10T08:25:02;9.63;;;7.55;;
19535;SDS011;9913;51.168;4.124;2023-06-10T08:27:30;9.85;;;7.50;;
19535;SDS011;9913;51.168;4.124;2023-06-10T08:29:58;10.45;;;7.68;;
19535;SDS011;9913;51.168;4.124;2023-06-10T08:32:27;8.35;;;7.53;;
19535;SDS011;9913;51.168;4.124;2023-06-10T08:34:56;9.02;;;7.40;;
19535;SDS011;9913;51.168;4.124;2023-06-10T08:37:24;9.27;;;8.35;;
19535;SDS011;9913;51.168;4.124;2023-06-10T08:39:54;8.30;;;7.43;;
19535;SDS011;9913;51.168;4.124;2023-06-10T08:42:23;9.70;;;7.57;;
19535;SDS011;9913;51.168;4.124;2023-06-10T08:44:55;8.23;;;7.40;;
19535;SDS011;9913;51.168;4.124;2023-06-10T08:47:30;8.52;;;7.57;;
19535;SDS011;9913;51.168;4.124;2023-06-10T08:50:04;8.55;;;7.63;;
19535;SDS011;9913;51.168;4.124;2023-06-10T08:52:36;9.05;;;7.38;;
19535;SDS011;9913;51.168;4.124;2023-06-10T08:55:08;8.07;;;7.28;;
19535;SDS011;9913;51.168;4.124;2023-06-10T08:57:40;8.20;;;7.40;;
19535;SDS011;9913;51.168;4.124;2023-06-10T09:00:11;8.38;;;7.07;;
19535;SDS011;9913;51.168;4.124;2023-06-10T09:02:40;7.50;;;6.80;;
19535;SDS011;9913;51.168;4.124;2023-06-10T09:05:10;8.25;;;6.95;;
19535;SDS011;9913;51.168;4.124;2023-06-10T09:07:38;7.90;;;7.13;;
19535;SDS011;9913;51.168;4.124;2023-06-10T09:10:09;8.57;;;7.20;;
19535;SDS011;9913;51.168;4.124;2023-06-10T09:12:39;9.05;;;7.07;;
19535;SDS011;9913;51.168;4.124;2023-06-10T09:15:08;8.48;;;6.85;;
19535;SDS011;9913;51.168;4.124;2023-06-10T09:17:38;7.35;;;6.53;;
19535;SDS011;9913;51.168;4.124;2023-06-10T09:20:07;7.35;;;6.65;;
19535;SDS011;9913;51.168;4.124;2023-06-10T09:22:37;7.80;;;7.00;;
19535;SDS011;9913;51.168;4.124;2023-06-10T09:25:05;7.68;;;6.97;;
19535;SDS011;9913;51.168;4.124;2023-06-10T09:27:45;6.93;;;6.28;;
19535;SDS011;9913;51.168;4.124;2023-06-10T09:30:24;7.47;;;6.72;;
19535;SDS011;9913;51.168;4.124;2023-06-10T09:32:55;8.70;;;6.72;;
19535;SDS011;9913;51.168;4.124;2023-06-10T09:35:24;6.97;;;6.38;;
19535;SDS011;9913;51.168;4.124;2023-06-10T09:37:54;7.60;;;6.63;;
19535;SDS011;9913;51.168;4.124;2023-06-10T09:40:23;7.90;;;6.20;;
19535;SDS011;9913;51.168;4.124;2023-06-10T09:42:54;7.90;;;6.20;;
19535;SDS011;9913;51.168;4.124;2023-06-10T09:45:23;7.75;;;6.50;;
19535;SDS011;9913;51.168;4.124;2023-06-10T09:47:57;7.13;;;6.50;;
19535;SDS011;9913;51.168;4.124;2023-06-10T09:50:25;8.57;;;6.57;;
19535;SDS011;9913;51.168;4.124;2023-06-10T09:52:54;7.45;;;6.57;;
19535;SDS011;9913;51.168;4.124;2023-06-10T09:55:22;10.05;;;6.30;;
19535;SDS011;9913;51.168;4.124;2023-06-10T09:57:54;9.27;;;7.00;;
19535;SDS011;9913;51.168;4.124;2023-06-10T10:00:22;7.15;;;6.47;;
19535;SDS011;9913;51.168;4.124;2023-06-10T10:02:52;8.32;;;6.50;;
19535;SDS011;9913;51.168;4.124;2023-06-10T10:05:22;8.40;;;6.63;;
19535;SDS011;9913;51.168;4.124;2023-06-10T10:07:51;7.57;;;6.80;;
19535;SDS011;9913;51.168;4.124;2023-06-10T10:10:20;8.07;;;6.90;;
19535;SDS011;9913;51.168;4.124;2023-06-10T10:12:50;7.55;;;6.85;;
19535;SDS011;9913;51.168;4.124;2023-06-10T10:15:23;7.57;;;6.63;;
19535;SDS011;9913;51.168;4.124;2023-06-10T10:17:58;8.05;;;6.88;;
19535;SDS011;9913;51.168;4.124;2023-06-10T10:20:33;7.80;;;6.55;;
19535;SDS011;9913;51.168;4.124;2023-06-10T10:23:03;7.20;;;6.50;;
19535;SDS011;9913;51.168;4.124;2023-06-10T10:25:34;7.88;;;6.72;;
19535;SDS011;9913;51.168;4.124;2023-06-10T10:28:06;8.45;;;6.85;;
19535;SDS011;9913;51.168;4.124;2023-06-10T10:30:37;7.93;;;7.00;;
19535;SDS011;9913;51.168;4.124;2023-06-10T10:33:09;7.82;;;7.07;;
19535;SDS011;9913;51.168;4.124;2023-06-10T10:35:40;8.55;;;6.82;;
19535;SDS011;9913;51.168;4.124;2023-06-10T10:38:09;7.93;;;7.13;;
19535;SDS011;9913;51.168;4.124;2023-06-10T10:40:38;7.50;;;6.70;;
19535;SDS011;9913;51.168;4.124;2023-06-10T10:43:08;9.02;;;7.40;;
19535;SDS011;9913;51.168;4.124;2023-06-10T10:45:37;7.53;;;6.78;;
19535;SDS011;9913;51.168;4.124;2023-06-10T10:48:07;8.90;;;6.72;;
19535;SDS011;9913;51.168;4.124;2023-06-10T10:50:38;7.63;;;6.82;;
19535;SDS011;9913;51.168;4.124;2023-06-10T10:53:07;9.05;;;7.28;;
19535;SDS011;9913;51.168;4.124;2023-06-10T10:55:36;11.65;;;6.93;;
19535;SDS011;9913;51.168;4.124;2023-06-10T10:58:05;7.95;;;6.97;;
19535;SDS011;9913;51.168;4.124;2023-06-10T11:00:36;7.85;;;7.00;;
19535;SDS011;9913;51.168;4.124;2023-06-10T11:03:06;7.60;;;6.90;;
19535;SDS011;9913;51.168;4.124;2023-06-10T11:05:38;9.00;;;7.32;;
19535;SDS011;9913;51.168;4.124;2023-06-10T11:08:11;8.77;;;7.45;;
19535;SDS011;9913;51.168;4.124;2023-06-10T11:10:39;7.70;;;6.95;;
19535;SDS011;9913;51.168;4.124;2023-06-10T11:13:09;7.82;;;7.13;;
19535;SDS011;9913;51.168;4.124;2023-06-10T11:15:44;7.32;;;6.50;;
19535;SDS011;9913;51.168;4.124;2023-06-10T11:18:15;8.00;;;6.95;;
19535;SDS011;9913;51.168;4.124;2023-06-10T11:20:51;7.47;;;6.72;;
19535;SDS011;9913;51.168;4.124;2023-06-10T11:23:24;7.55;;;6.85;;
19535;SDS011;9913;51.168;4.124;2023-06-10T11:26:08;7.65;;;6.90;;
19535;SDS011;9913;51.168;4.124;2023-06-10T11:31:33;8.70;;;6.45;;
19535;SDS011;9913;51.168;4.124;2023-06-10T11:34:06;9.32;;;7.38;;
19535;SDS011;9913;51.168;4.124;2023-06-10T11:36:36;9.10;;;7.07;;
19535;SDS011;9913;51.168;4.124;2023-06-10T11:39:07;7.03;;;6.32;;
19535;SDS011;9913;51.168;4.124;2023-06-10T11:41:35;10.35;;;6.65;;
19535;SDS011;9913;51.168;4.124;2023-06-10T11:44:07;6.97;;;6.35;;
19535;SDS011;9913;51.168;4.124;2023-06-10T11:46:38;7.45;;;6.72;;
19535;SDS011;9913;51.168;4.124;2023-06-10T11:49:07;7.00;;;6.30;;
19535;SDS011;9913;51.168;4.124;2023-06-10T11:51:36;7.80;;;7.00;;
19535;SDS011;9913;51.168;4.124;2023-06-10T11:54:08;12.13;;;7.15;;
19535;SDS011;9913;51.168;4.124;2023-06-10T11:56:36;7.68;;;6.97;;
19535;SDS011;9913;51.168;4.124;2023-06-10T11:59:05;40.40;;;12.52;;
19535;SDS011;9913;51.168;4.124;2023-06-10T12:01:35;10.02;;;7.38;;
19535;SDS011;9913;51.168;4.124;2023-06-10T12:04:11;8.05;;;7.20;;
19535;SDS011;9913;51.168;4.124;2023-06-10T12:06:42;7.57;;;6.50;;
19535;SDS011;9913;51.168;4.124;2023-06-10T12:09:14;7.30;;;6.60;;
19535;SDS011;9913;51.168;4.124;2023-06-10T12:11:52;7.97;;;7.07;;
19535;SDS011;9913;51.168;4.124;2023-06-10T12:17:23;7.82;;;7.03;;
19535;SDS011;9913;51.168;4.124;2023-06-10T12:20:07;7.13;;;6.25;;
19535;SDS011;9913;51.168;4.124;2023-06-10T12:22:36;7.10;;;6.40;;
19535;SDS011;9913;51.168;4.124;2023-06-10T12:25:06;10.90;;;9.55;;
19535;SDS011;9913;51.168;4.124;2023-06-10T12:27:38;9.15;;;7.68;;
19535;SDS011;9913;51.168;4.124;2023-06-10T12:30:07;8.57;;;7.72;;
19535;SDS011;9913;51.168;4.124;2023-06-10T12:32:37;8.30;;;7.40;;
19535;SDS011;9913;51.168;4.124;2023-06-10T12:35:09;11.88;;;10.75;;
19535;SDS011;9913;51.168;4.124;2023-06-10T12:37:39;8.50;;;7.53;;
19535;SDS011;9913;51.168;4.124;2023-06-10T12:40:09;20.98;;;18.75;;
19535;SDS011;9913;51.168;4.124;2023-06-10T12:42:39;9.40;;;8.35;;
19535;SDS011;9913;51.168;4.124;2023-06-10T12:45:08;18.88;;;13.57;;
19535;SDS011;9913;51.168;4.124;2023-06-10T12:47:39;9.63;;;8.70;;
19535;SDS011;9913;51.168;4.124;2023-06-10T12:50:10;13.18;;;10.50;;
19535;SDS011;9913;51.168;4.124;2023-06-10T12:52:39;11.77;;;10.50;;
19535;SDS011;9913;51.168;4.124;2023-06-10T12:55:09;25.52;;;16.58;;
19535;SDS011;9913;51.168;4.124;2023-06-10T12:57:47;16.45;;;14.70;;
19535;SDS011;9913;51.168;4.124;2023-06-10T13:00:16;7.63;;;7.00;;
19535;SDS011;9913;51.168;4.124;2023-06-10T13:02:46;8.02;;;7.22;;
19535;SDS011;9913;51.168;4.124;2023-06-10T13:05:17;10.05;;;9.05;;
19535;SDS011;9913;51.168;4.124;2023-06-10T13:07:47;17.48;;;15.90;;
19535;SDS011;9913;51.168;4.124;2023-06-10T13:10:16;19.40;;;17.92;;
19535;SDS011;9913;51.168;4.124;2023-06-10T13:12:48;20.40;;;18.80;;
19535;SDS011;9913;51.168;4.124;2023-06-10T13:15:17;33.10;;;29.73;;
19535;SDS011;9913;51.168;4.124;2023-06-10T13:17:45;63.38;;;57.63;;
19535;SDS011;9913;51.168;4.124;2023-06-10T13:20:17;55.42;;;51.33;;
19535;SDS011;9913;51.168;4.124;2023-06-10T13:22:47;18.92;;;17.40;;
19535;SDS011;9913;51.168;4.124;2023-06-10T13:25:16;65.75;;;58.75;;
19535;SDS011;9913;51.168;4.124;2023-06-10T13:27:44;40.08;;;36.63;;
19535;SDS011;9913;51.168;4.124;2023-06-10T13:30:12;33.35;;;30.50;;
19535;SDS011;9913;51.168;4.124;2023-06-10T13:32:41;24.25;;;22.38;;
19535;SDS011;9913;51.168;4.124;2023-06-10T13:35:10;18.25;;;16.80;;
19535;SDS011;9913;51.168;4.124;2023-06-10T13:37:40;30.30;;;28.23;;
19535;SDS011;9913;51.168;4.124;2023-06-10T13:40:09;36.10;;;33.15;;
19535;SDS011;9913;51.168;4.124;2023-06-10T13:42:38;90.85;;;83.05;;
19535;SDS011;9913;51.168;4.124;2023-06-10T13:45:06;38.67;;;35.55;;
19535;SDS011;9913;51.168;4.124;2023-06-10T13:47:36;42.78;;;40.30;;
19535;SDS011;9913;51.168;4.124;2023-06-10T13:50:06;34.85;;;32.35;;
19535;SDS011;9913;51.168;4.124;2023-06-10T13:52:35;52.00;;;48.45;;
19535;SDS011;9913;51.168;4.124;2023-06-10T13:55:05;116.53;;;108.20;;
19535;SDS011;9913;51.168;4.124;2023-06-10T13:57:34;178.88;;;168.02;;
19535;SDS011;9913;51.168;4.124;2023-06-10T14:00:03;179.73;;;167.98;;
19535;SDS011;9913;51.168;4.124;2023-06-10T14:02:32;361.88;;;338.08;;
19535;SDS011;9913;51.168;4.124;2023-06-10T14:05:01;348.83;;;331.05;;
19535;SDS011;9913;51.168;4.124;2023-06-10T14:07:30;470.17;;;446.55;;
19535;SDS011;9913;51.168;4.124;2023-06-10T14:09:58;528.90;;;498.33;;
19535;SDS011;9913;51.168;4.124;2023-06-10T14:12:28;599.65;;;555.22;;
19535;SDS011;9913;51.168;4.124;2023-06-10T14:14:56;25.10;;;13.25;;
19535;SDS011;9913;51.168;4.124;2023-06-10T14:17:24;9.40;;;8.38;;
19535;SDS011;9913;51.168;4.124;2023-06-10T14:19:53;10.32;;;7.85;;
19535;SDS011;9913;51.168;4.124;2023-06-10T14:22:21;9.52;;;7.82;;
19535;SDS011;9913;51.168;4.124;2023-06-10T14:24:49;10.07;;;9.07;;
19535;SDS011;9913;51.168;4.124;2023-06-10T14:27:18;11.50;;;9.93;;
19535;SDS011;9913;51.168;4.124;2023-06-10T14:29:48;14.25;;;9.68;;
19535;SDS011;9913;51.168;4.124;2023-06-10T14:32:36;9.48;;;7.97;;
19535;SDS011;9913;51.168;4.124;2023-06-10T14:35:05;253.48;;;221.15;;
19535;SDS011;9913;51.168;4.124;2023-06-10T14:37:34;23.27;;;14.93;;
19535;SDS011;9913;51.168;4.124;2023-06-10T14:40:03;48.92;;;25.38;;
19535;SDS011;9913;51.168;4.124;2023-06-10T14:42:32;149.07;;;55.15;;
19535;SDS011;9913;51.168;4.124;2023-06-10T14:45:02;129.88;;;50.95;;
19535;SDS011;9913;51.168;4.124;2023-06-10T14:47:33;110.28;;;50.95;;
19535;SDS011;9913;51.168;4.124;2023-06-10T14:50:01;97.47;;;35.70;;
19535;SDS011;9913;51.168;4.124;2023-06-10T14:52:30;272.02;;;80.15;;
19535;SDS011;9913;51.168;4.124;2023-06-10T14:54:58;1543.55;;;879.83;;
19535;SDS011;9913;51.168;4.124;2023-06-10T14:57:26;179.85;;;114.20;;
19535;SDS011;9913;51.168;4.124;2023-06-10T14:59:55;552.45;;;269.70;;
19535;SDS011;9913;51.168;4.124;2023-06-10T15:02:25;372.17;;;196.02;;
19535;SDS011;9913;51.168;4.124;2023-06-10T15:04:53;834.65;;;436.83;;
19535;SDS011;9913;51.168;4.124;2023-06-10T15:07:21;1999.90;;;999.90;;